Time;durP1;ratioP1;P1;durP2;ratioP2;P2;SDS_P1;SDS_P2;PMS_P1;PMS_P2;Temp;Humidity;BMP_temperature;BMP_pressure;BME280_temperature;BME280_humidity;BME280_pressure;Samples;Min_cycle;Max_cycle;Signal;HPM_P1;HPM_P2
2024/03/15 00:02:14;;;;;;;4.40;3.40;;;16.90;57.90;;;;;;5010089;28;20193;-59
2024/03/15 00:04:41;;;;;;;3.80;3.50;;;16.80;57.90;;;;;;5009920;28;20565;-59
2024/03/15 00:07:07;;;;;;;3.33;3.03;;;16.80;57.90;;;;;;5008150;28;20808;-58
2024/03/15 00:09:32;;;;;;;3.27;2.77;;;16.80;57.80;;;;;;5004272;28;20422;-58
2024/03/15 00:12:00;;;;;;;3.77;3.00;;;16.90;57.80;;;;;;5011359;28;20557;-58
2024/03/15 00:14:26;;;;;;;3.60;3.30;;;16.90;57.80;;;;;;5007807;28;20186;-58
2024/03/15 00:16:52;;;;;;;3.10;2.90;;;16.80;57.60;;;;;;5011085;28;20531;-59
2024/03/15 00:19:18;;;;;;;2.90;2.70;;;16.80;57.60;;;;;;5006159;28;21016;-58
2024/03/15 00:21:44;;;;;;;4.47;3.20;;;16.80;57.60;;;;;;5010441;28;20242;-59
2024/03/15 00:24:09;;;;;;;4.43;2.90;;;16.80;57.50;;;;;;5004188;28;20803;-58
2024/03/15 00:26:35;;;;;;;3.63;2.90;;;16.70;57.60;;;;;;5008867;28;20220;-60
2024/03/15 00:29:03;;;;;;;8.13;4.07;;;16.70;57.70;;;;;;5010188;28;20267;-59
2024/03/15 00:31:29;;;;;;;4.07;3.60;;;16.80;57.70;;;;;;5008632;28;20206;-59
2024/03/15 00:33:54;;;;;;;3.97;3.57;;;16.80;57.60;;;;;;5007580;28;20854;-59
2024/03/15 00:36:20;;;;;;;3.57;3.27;;;16.80;57.60;;;;;;5010867;28;20260;-58
2024/03/15 00:38:46;;;;;;;3.67;3.07;;;16.40;58.20;;;;;;5005090;28;20210;-59
2024/03/15 00:41:11;;;;;;;4.30;3.90;;;16.40;58.40;;;;;;5010683;28;20259;-58
2024/03/15 00:43:37;;;;;;;3.17;2.87;;;16.50;58.80;;;;;;5006962;28;20183;-59
2024/03/15 00:46:03;;;;;;;5.27;3.33;;;16.60;58.30;;;;;;5008797;28;20189;-59
2024/03/15 00:48:28;;;;;;;4.00;3.13;;;16.50;58.20;;;;;;5005563;28;20554;-59
2024/03/15 00:50:54;;;;;;;6.63;3.30;;;16.60;58.10;;;;;;5008508;28;20186;-59
2024/03/15 00:53:20;;;;;;;3.43;3.13;;;16.70;57.90;;;;;;5008104;28;20663;-58
2024/03/15 00:55:45;;;;;;;5.70;3.40;;;16.70;57.60;;;;;;5009762;28;20178;-59
2024/03/15 00:58:11;;;;;;;3.40;3.10;;;16.70;57.60;;;;;;5005096;28;20237;-60
2024/03/15 01:00:37;;;;;;;3.77;3.50;;;16.50;58.00;;;;;;5009958;28;20241;-58
2024/03/15 01:03:03;;;;;;;3.10;2.80;;;16.30;58.50;;;;;;5003240;28;20567;-59
2024/03/15 01:05:28;;;;;;;3.80;3.03;;;16.20;58.70;;;;;;5008623;28;20261;-59
2024/03/15 01:07:54;;;;;;;5.07;2.90;;;16.20;59.00;;;;;;5008774;28;20704;-58
2024/03/15 01:10:20;;;;;;;3.77;3.40;;;16.20;58.80;;;;;;5006857;28;20182;-59
2024/03/15 01:12:46;;;;;;;5.07;3.50;;;16.20;58.70;;;;;;5008054;28;20186;-58
2024/03/15 01:15:12;;;;;;;3.80;3.50;;;16.10;58.80;;;;;;5008814;28;20868;-59
2024/03/15 01:17:37;;;;;;;5.93;2.90;;;15.90;59.30;;;;;;5005350;28;20637;-59
2024/03/15 01:20:08;;;;;;;4.17;3.60;;;15.90;59.20;;;;;;5007494;28;20648;-56
2024/03/15 01:22:33;;;;;;;5.40;3.50;;;15.90;59.10;;;;;;5010411;28;20293;-59
2024/03/15 01:24:59;;;;;;;4.70;3.80;;;16.00;58.90;;;;;;5006384;28;20450;-59
2024/03/15 01:27:25;;;;;;;4.93;3.80;;;16.10;58.80;;;;;;5005430;28;20288;-58
2024/03/15 01:29:53;;;;;;;4.57;3.57;;;16.10;58.70;;;;;;5009200;28;20682;-59
2024/03/15 01:32:19;;;;;;;4.17;3.77;;;16.10;58.70;;;;;;5007861;28;20190;-59
2024/03/15 01:34:45;;;;;;;4.20;3.30;;;15.90;58.80;;;;;;5007622;28;20531;-58
2024/03/15 01:37:11;;;;;;;5.40;3.10;;;15.80;59.30;;;;;;5009928;28;20214;-58
2024/03/15 01:39:38;;;;;;;4.73;3.77;;;15.70;59.70;;;;;;5006948;28;20417;-59
2024/03/15 01:42:03;;;;;;;4.10;3.80;;;15.80;59.40;;;;;;5009600;28;20468;-57
2024/03/15 01:44:51;;;;;;;3.37;3.07;;;15.80;59.50;;;;;;5005353;28;20511;-59
2024/03/15 01:47:19;;;;;;;4.37;3.57;;;15.70;59.90;;;;;;5004484;28;20226;-59
2024/03/15 01:49:45;;;;;;;4.30;3.57;;;15.70;59.90;;;;;;5008885;28;20429;-58
2024/03/15 01:52:12;;;;;;;3.73;3.40;;;15.70;59.80;;;;;;5007238;28;20487;-59
2024/03/15 01:54:38;;;;;;;4.10;3.50;;;15.80;59.50;;;;;;5005598;28;20542;-59
2024/03/15 01:57:05;;;;;;;3.40;3.10;;;15.90;59.40;;;;;;5003615;28;21358;-57
2024/03/15 01:59:31;;;;;;;3.60;3.40;;;15.80;59.30;;;;;;5004068;28;20438;-56
2024/03/15 02:02:05;;;;;;;3.20;2.90;;;15.90;59.30;;;;;;5008831;28;20468;-59
2024/03/15 02:04:31;;;;;;;4.07;3.40;;;16.00;59.10;;;;;;5004424;28;20454;-60
2024/03/15 02:06:57;;;;;;;3.33;3.03;;;15.90;59.20;;;;;;5006906;28;21070;-60
2024/03/15 02:09:24;;;;;;;4.70;3.57;;;16.00;59.00;;;;;;5006929;28;20434;-57
2024/03/15 02:11:51;;;;;;;3.70;3.30;;;16.00;58.80;;;;;;5009724;28;20427;-59
2024/03/15 02:14:16;;;;;;;4.00;2.90;;;16.00;58.80;;;;;;5004967;28;20897;-58
2024/03/15 02:16:42;;;;;;;3.53;3.20;;;16.00;58.80;;;;;;5008476;28;20453;-59
2024/03/15 02:19:09;;;;;;;3.73;3.40;;;16.10;58.70;;;;;;5003172;28;20186;-58
2024/03/15 02:21:35;;;;;;;3.43;3.13;;;16.00;58.60;;;;;;5006987;28;20213;-58
2024/03/15 02:24:01;;;;;;;5.47;3.20;;;16.00;58.60;;;;;;5008909;28;20479;-58
2024/03/15 02:26:27;;;;;;;3.10;2.70;;;16.10;58.60;;;;;;5007594;28;20198;-57
2024/03/15 02:28:53;;;;;;;4.50;3.20;;;16.10;58.50;;;;;;5005785;28;20436;-59
2024/03/15 02:31:21;;;;;;;5.80;3.00;;;16.20;58.40;;;;;;5007212;28;20193;-59
2024/03/15 02:33:47;;;;;;;3.20;2.90;;;16.10;58.20;;;;;;5008032;28;20405;-59
2024/03/15 02:36:15;;;;;;;4.03;3.50;;;16.00;58.50;;;;;;5005703;28;20912;-59
2024/03/15 02:38:43;;;;;;;3.90;2.70;;;16.00;58.60;;;;;;5005023;28;20425;-60
2024/03/15 02:41:13;;;;;;;4.13;3.37;;;16.00;58.50;;;;;;5009132;28;20499;-57
2024/03/15 02:43:40;;;;;;;3.00;2.80;;;16.00;58.40;;;;;;5002973;28;20426;-58
2024/03/15 02:46:06;;;;;;;4.80;3.10;;;16.10;58.40;;;;;;5007544;28;20421;-60
2024/03/15 02:48:32;;;;;;;3.60;3.30;;;16.00;58.30;;;;;;5004344;28;20422;-57
2024/03/15 02:50:58;;;;;;;2.63;2.43;;;16.00;58.50;;;;;;5006979;28;20619;-59
2024/03/15 02:53:25;;;;;;;3.77;3.30;;;16.00;58.40;;;;;;5007191;28;20815;-57
2024/03/15 02:55:50;;;;;;;3.50;3.20;;;16.10;58.20;;;;;;5005270;28;20436;-59
2024/03/15 02:58:18;;;;;;;4.97;3.00;;;16.10;58.00;;;;;;5004415;28;20937;-59
2024/03/15 03:00:46;;;;;;;2.90;2.70;;;16.10;58.10;;;;;;5008358;28;20221;-59
2024/03/15 03:03:11;;;;;;;4.40;3.30;;;16.10;58.00;;;;;;5003063;28;20905;-58
2024/03/15 03:05:37;;;;;;;3.87;3.57;;;16.10;57.90;;;;;;5007561;28;20453;-59
2024/03/15 03:08:04;;;;;;;3.10;2.90;;;16.10;57.80;;;;;;5004472;28;20976;-59
2024/03/15 03:10:30;;;;;;;3.03;2.60;;;16.10;57.60;;;;;;5006133;28;20174;-58
2024/03/15 03:12:55;;;;;;;3.10;2.70;;;16.00;57.90;;;;;;5006364;28;20475;-59
2024/03/15 03:15:21;;;;;;;3.93;3.10;;;15.90;57.90;;;;;;5005545;28;20268;-59
2024/03/15 03:17:46;;;;;;;3.57;2.97;;;16.00;58.00;;;;;;5003713;28;20194;-57
2024/03/15 03:20:19;;;;;;;3.00;2.70;;;15.90;57.70;;;;;;5003867;28;20182;-58
2024/03/15 03:22:46;;;;;;;2.87;2.67;;;16.00;57.60;;;;;;5009200;28;20189;-55
2024/03/15 03:25:13;;;;;;;7.50;2.97;;;16.00;57.60;;;;;;5007143;28;20420;-59
2024/03/15 03:27:39;;;;;;;3.23;2.60;;;16.00;57.60;;;;;;5005671;28;20456;-59
2024/03/15 03:30:05;;;;;;;4.80;3.43;;;16.00;57.60;;;;;;5006867;28;21025;-58
2024/03/15 03:32:31;;;;;;;4.73;2.80;;;15.90;57.50;;;;;;5006146;28;20194;-59
2024/03/15 03:34:57;;;;;;;2.63;2.43;;;15.90;57.60;;;;;;5008972;28;20843;-57
2024/03/15 03:37:22;;;;;;;3.27;2.77;;;15.80;57.70;;;;;;5011877;28;20220;-59
2024/03/15 03:39:48;;;;;;;9.03;3.60;;;15.70;57.70;;;;;;5002828;28;20186;-59
2024/03/15 03:42:14;;;;;;;3.73;2.97;;;15.70;57.90;;;;;;5010911;28;20332;-57
2024/03/15 03:44:41;;;;;;;3.10;2.80;;;15.70;57.70;;;;;;5010387;28;20241;-59
2024/03/15 03:47:09;;;;;;;3.30;2.70;;;15.50;57.80;;;;;;5008413;28;20217;-58
2024/03/15 03:49:34;;;;;;;3.20;2.53;;;15.50;57.80;;;;;;5010108;28;20436;-59
2024/03/15 03:52:00;;;;;;;3.00;2.70;;;15.50;57.70;;;;;;5008597;28;20425;-59
2024/03/15 03:54:25;;;;;;;3.13;2.50;;;15.50;57.70;;;;;;5008329;28;20764;-57
2024/03/15 03:56:51;;;;;;;5.70;2.70;;;15.50;57.60;;;;;;5010407;28;20210;-57
2024/03/15 03:59:16;;;;;;;2.70;2.50;;;15.60;57.60;;;;;;5009804;28;20653;-59
2024/03/15 04:01:43;;;;;;;2.90;2.30;;;15.60;57.40;;;;;;5009714;28;20279;-58
2024/03/15 04:04:08;;;;;;;3.80;2.30;;;15.50;57.40;;;;;;5008818;28;20186;-58
2024/03/15 04:06:34;;;;;;;2.90;2.60;;;15.30;57.60;;;;;;5007028;28;20455;-58
2024/03/15 04:09:00;;;;;;;2.80;2.27;;;15.20;58.00;;;;;;5008693;28;20269;-58
2024/03/15 04:11:26;;;;;;;5.57;2.83;;;15.10;58.20;;;;;;5011552;28;20879;-58
2024/03/15 04:13:52;;;;;;;3.83;3.43;;;15.20;58.10;;;;;;5006292;28;20475;-59
2024/03/15 04:16:18;;;;;;;3.60;2.63;;;15.10;58.00;;;;;;5010590;28;20552;-58
2024/03/15 04:18:44;;;;;;;3.60;2.70;;;15.00;58.20;;;;;;5004499;28;20413;-56
2024/03/15 04:21:13;;;;;;;3.50;2.33;;;14.90;58.60;;;;;;5010264;28;20534;-59
2024/03/15 04:23:39;;;;;;;3.90;2.40;;;15.00;58.40;;;;;;5005707;28;20189;-58
2024/03/15 04:26:05;;;;;;;2.57;2.37;;;15.10;58.10;;;;;;5008316;28;20433;-58
2024/03/15 04:28:32;;;;;;;3.03;2.60;;;15.20;57.90;;;;;;5008253;28;20196;-59
2024/03/15 04:30:58;;;;;;;2.63;2.43;;;15.20;57.70;;;;;;5011504;28;20428;-59
2024/03/15 04:33:23;;;;;;;3.37;2.20;;;15.30;57.50;;;;;;5006201;28;20428;-57
2024/03/15 04:35:52;;;;;;;2.90;2.43;;;15.20;57.60;;;;;;5007063;28;20244;-58
2024/03/15 04:38:18;;;;;;;2.67;2.40;;;15.10;57.70;;;;;;5003781;28;20185;-57
2024/03/15 04:40:44;;;;;;;2.33;2.10;;;15.10;58.00;;;;;;5008705;28;20480;-59
2024/03/15 04:43:10;;;;;;;2.70;2.50;;;15.10;57.90;;;;;;5009967;28;21577;-59
2024/03/15 04:45:36;;;;;;;2.83;2.40;;;15.20;57.80;;;;;;5007943;28;20198;-59
2024/03/15 04:48:02;;;;;;;2.50;2.30;;;15.30;57.50;;;;;;5007324;28;20460;-58
2024/03/15 04:50:27;;;;;;;2.80;2.40;;;15.30;57.30;;;;;;5006887;28;20186;-59
2024/03/15 04:52:53;;;;;;;2.00;1.90;;;15.30;57.50;;;;;;5005678;28;20214;-58
2024/03/15 04:55:20;;;;;;;4.37;3.57;;;15.40;57.40;;;;;;5009553;28;20194;-59
2024/03/15 04:57:47;;;;;;;3.07;2.77;;;15.40;57.20;;;;;;5007107;28;20194;-57
2024/03/15 05:00:19;;;;;;;3.27;2.97;;;15.40;57.20;;;;;;5009042;28;20832;-58
2024/03/15 05:02:51;;;;;;;3.83;3.00;;;15.50;56.90;;;;;;5006526;28;20456;-57
2024/03/15 05:05:17;;;;;;;4.00;2.87;;;15.40;57.10;;;;;;5006580;28;20980;-59
2024/03/15 05:07:43;;;;;;;4.27;2.87;;;15.30;56.90;;;;;;5008633;28;20516;-56
2024/03/15 05:10:13;;;;;;;5.20;2.67;;;15.10;57.30;;;;;;5008529;28;20519;-59
2024/03/15 05:12:40;;;;;;;4.43;2.77;;;15.30;57.40;;;;;;5007684;28;20598;-59
2024/03/15 05:15:06;;;;;;;3.93;3.13;;;15.30;57.20;;;;;;5006745;28;20460;-59
2024/03/15 05:17:31;;;;;;;3.67;2.80;;;15.40;57.20;;;;;;5005290;28;20484;-60
2024/03/15 05:19:57;;;;;;;3.90;2.80;;;15.40;57.20;;;;;;5006409;28;20344;-59
2024/03/15 05:22:24;;;;;;;6.00;2.60;;;15.40;57.80;;;;;;5010707;28;20217;-59
2024/03/15 05:24:50;;;;;;;2.67;2.47;;;15.50;57.10;;;;;;4999914;28;20210;-59
2024/03/15 05:27:16;;;;;;;4.53;2.33;;;15.50;57.00;;;;;;5003492;28;20453;-59
2024/03/15 05:29:41;;;;;;;2.90;2.37;;;15.50;56.90;;;;;;5008804;28;20490;-59
2024/03/15 05:32:07;;;;;;;6.43;2.90;;;15.50;56.80;;;;;;5007494;28;20215;-59
2024/03/15 05:34:32;;;;;;;3.53;2.80;;;15.60;56.80;;;;;;5007525;28;20653;-59
2024/03/15 05:36:59;;;;;;;6.23;3.83;;;15.60;56.70;;;;;;5005917;28;20213;-59
2024/03/15 05:39:28;;;;;;;4.67;3.90;;;15.60;56.60;;;;;;5004987;28;20194;-59
2024/03/15 05:41:54;;;;;;;3.30;3.00;;;15.60;56.50;;;;;;5009529;28;20503;-60
2024/03/15 05:44:19;;;;;;;4.07;3.20;;;15.40;56.60;;;;;;5006593;28;20565;-56
2024/03/15 05:46:45;;;;;;;7.70;5.10;;;15.20;57.10;;;;;;5007535;28;20218;-59
2024/03/15 05:49:12;;;;;;;5.87;4.47;;;15.30;57.20;;;;;;5008066;28;20180;-59
2024/03/15 05:51:38;;;;;;;5.20;4.70;;;15.30;57.10;;;;;;5007103;28;20197;-59
2024/03/15 05:54:03;;;;;;;6.47;5.40;;;15.30;57.10;;;;;;5006459;28;20893;-57
2024/03/15 05:56:29;;;;;;;5.60;3.70;;;15.30;57.00;;;;;;5009322;28;20210;-59
2024/03/15 05:58:54;;;;;;;4.73;4.30;;;15.10;57.00;;;;;;5004497;28;20269;-59
2024/03/15 06:01:20;;;;;;;5.20;3.43;;;15.00;57.30;;;;;;5008844;28;20217;-59
2024/03/15 06:03:46;;;;;;;5.03;2.97;;;15.00;57.50;;;;;;5002999;28;20228;-56
2024/03/15 06:06:12;;;;;;;3.73;3.37;;;15.00;57.60;;;;;;5007325;28;20206;-60
2024/03/15 06:08:37;;;;;;;4.20;3.20;;;15.10;57.50;;;;;;5007775;28;20232;-59
2024/03/15 06:11:04;;;;;;;3.43;2.93;;;15.00;57.40;;;;;;5006686;28;20428;-59
2024/03/15 06:13:29;;;;;;;5.27;3.23;;;15.10;57.30;;;;;;5006630;28;20567;-59
2024/03/15 06:15:55;;;;;;;4.50;3.30;;;15.20;57.10;;;;;;5005498;28;20433;-59
2024/03/15 06:18:21;;;;;;;2.90;2.60;;;15.30;57.00;;;;;;5003774;28;20436;-59
2024/03/15 06:20:47;;;;;;;3.70;3.30;;;15.40;56.80;;;;;;5008642;28;20210;-60
2024/03/15 06:23:12;;;;;;;3.80;3.30;;;15.40;56.80;;;;;;5006560;28;20183;-60
2024/03/15 06:25:40;;;;;;;2.87;2.60;;;15.40;56.70;;;;;;5005284;28;20229;-57
2024/03/15 06:28:10;;;;;;;3.23;2.93;;;15.50;56.60;;;;;;5005639;28;20673;-60
2024/03/15 06:30:43;;;;;;;2.77;2.57;;;15.50;56.40;;;;;;5009269;28;20447;-59
2024/03/15 06:33:10;;;;;;;3.40;3.10;;;15.60;56.30;;;;;;5004737;28;20460;-59
2024/03/15 06:35:36;;;;;;;5.10;2.87;;;15.60;56.20;;;;;;5008616;28;20413;-59
2024/03/15 06:38:09;;;;;;;3.83;2.17;;;15.70;56.10;;;;;;5001691;28;20449;-60
2024/03/15 06:41:40;;;;;;;3.33;2.60;;;15.70;56.00;;;;;;5007045;28;20301;-60
2024/03/15 06:43:41;;;;;;;4.70;2.80;;;15.80;56.00;;;;;;4995460;28;20463;-58
2024/03/15 06:46:20;;;;;;;2.60;2.40;;;15.90;55.90;;;;;;5003210;28;20433;-60
2024/03/15 06:49:12;;;;;;;4.10;2.90;;;16.00;55.80;;;;;;5007369;28;20515;-60
2024/03/15 06:54:24;;;;;;;2.60;2.40;;;16.10;55.50;;;;;;5004348;28;20856;-59
2024/03/15 06:56:50;;;;;;;2.70;2.50;;;16.20;55.50;;;;;;5004786;28;20452;-58
2024/03/15 06:59:17;;;;;;;3.37;3.07;;;16.30;55.30;;;;;;5001703;28;20417;-60
2024/03/15 07:01:43;;;;;;;3.30;3.00;;;16.40;55.30;;;;;;5006464;28;20595;-59
2024/03/15 07:04:09;;;;;;;3.03;2.70;;;16.30;54.80;;;;;;5007891;28;20422;-60
2024/03/15 07:06:35;;;;;;;5.33;3.00;;;16.30;54.80;;;;;;5005058;28;20212;-57
2024/03/15 07:09:04;;;;;;;2.70;2.47;;;16.40;54.80;;;;;;5009863;28;20192;-58
2024/03/15 07:11:33;;;;;;;5.17;2.83;;;16.40;54.50;;;;;;5012709;28;20194;-56
2024/03/15 07:14:02;;;;;;;3.10;2.47;;;16.60;54.30;;;;;;5008231;28;20421;-60
2024/03/15 07:16:29;;;;;;;2.77;1.97;;;16.80;53.90;;;;;;5011307;28;20543;-60
2024/03/15 07:18:55;;;;;;;3.60;2.53;;;16.70;53.30;;;;;;5008849;28;20421;-60
2024/03/15 07:21:22;;;;;;;3.93;2.20;;;16.90;53.60;;;;;;5010471;28;20983;-59
2024/03/15 07:23:48;;;;;;;3.07;1.97;;;17.10;53.30;;;;;;5008186;28;20437;-60
2024/03/15 07:26:14;;;;;;;4.30;2.13;;;17.30;52.80;;;;;;5008352;28;20436;-59
2024/03/15 07:28:40;;;;;;;3.90;2.73;;;17.40;52.10;;;;;;5010037;28;20186;-59
2024/03/15 07:31:06;;;;;;;2.43;2.23;;;17.50;51.90;;;;;;5010882;28;20416;-60
2024/03/15 07:33:32;;;;;;;3.10;2.40;;;17.70;51.90;;;;;;5006900;28;20225;-58
2024/03/15 07:36:01;;;;;;;3.37;2.03;;;18.00;51.60;;;;;;5010788;28;20261;-59
2024/03/15 07:38:30;;;;;;;3.13;2.53;;;18.30;50.80;;;;;;5008363;28;20432;-60
2024/03/15 07:40:55;;;;;;;2.50;2.20;;;18.60;50.20;;;;;;5008653;28;20842;-60
2024/03/15 07:43:21;;;;;;;2.90;2.10;;;18.60;50.00;;;;;;5012022;28;20425;-59
2024/03/15 07:45:48;;;;;;;3.83;2.40;;;18.80;49.60;;;;;;5007336;28;20260;-60
2024/03/15 07:48:14;;;;;;;2.33;2.13;;;18.80;49.50;;;;;;5009819;28;20630;-59
2024/03/15 07:50:41;;;;;;;2.17;1.97;;;18.90;49.40;;;;;;5011740;28;20463;-59
2024/03/15 07:53:08;;;;;;;5.33;2.30;;;19.00;49.40;;;;;;5009220;28;20432;-60
2024/03/15 07:55:35;;;;;;;3.77;2.30;;;19.10;48.90;;;;;;5009821;28;20429;-60
2024/03/15 07:58:01;;;;;;;2.70;1.87;;;19.30;48.70;;;;;;5007534;28;20479;-60
2024/03/15 08:00:27;;;;;;;2.33;2.00;;;19.50;48.50;;;;;;5007781;28;20469;-60
2024/03/15 08:02:54;;;;;;;2.33;2.13;;;19.60;48.40;;;;;;5011577;28;20800;-60
2024/03/15 08:05:23;;;;;;;2.90;2.00;;;19.90;48.20;;;;;;5006651;28;20437;-60
2024/03/15 08:07:50;;;;;;;2.27;2.07;;;20.00;48.00;;;;;;5009855;28;20440;-57
2024/03/15 08:10:17;;;;;;;4.73;2.10;;;20.10;47.60;;;;;;5009060;28;20432;-60
2024/03/15 08:12:43;;;;;;;4.53;2.40;;;20.10;47.30;;;;;;5009267;28;20421;-60
2024/03/15 08:15:09;;;;;;;3.23;1.97;;;20.20;47.70;;;;;;5010118;28;20439;-60
2024/03/15 08:17:35;;;;;;;2.23;2.00;;;20.30;47.60;;;;;;5008164;28;20213;-59
2024/03/15 08:20:03;;;;;;;2.40;2.20;;;20.50;47.40;;;;;;5006652;28;20954;-60
2024/03/15 08:22:29;;;;;;;3.20;1.80;;;20.60;47.00;;;;;;5009850;28;21072;-60
2024/03/15 08:24:54;;;;;;;3.80;2.10;;;20.70;46.60;;;;;;5010582;28;20517;-60
2024/03/15 08:27:20;;;;;;;5.33;2.23;;;20.80;47.00;;;;;;5009310;28;20687;-59
2024/03/15 08:29:46;;;;;;;3.20;2.33;;;20.80;46.30;;;;;;5008404;28;20186;-59
2024/03/15 08:32:11;;;;;;;3.07;2.53;;;20.70;46.30;;;;;;5008845;28;20240;-60
2024/03/15 08:34:37;;;;;;;4.33;1.80;;;20.80;46.80;;;;;;5011225;28;20302;-60
2024/03/15 08:37:02;;;;;;;3.93;1.87;;;20.70;46.20;;;;;;5006527;28;20289;-60
2024/03/15 08:39:29;;;;;;;2.60;1.87;;;20.70;47.20;;;;;;5010146;28;20624;-60
2024/03/15 08:41:55;;;;;;;3.40;2.20;;;20.70;47.10;;;;;;5004153;28;20226;-60
2024/03/15 08:44:20;;;;;;;2.17;1.97;;;20.60;46.70;;;;;;5008505;28;20423;-59
2024/03/15 08:46:47;;;;;;;4.50;2.30;;;20.70;46.90;;;;;;5009630;28;20295;-60
2024/03/15 08:49:15;;;;;;;7.53;2.20;;;20.80;47.20;;;;;;5007471;28;20178;-60
2024/03/15 08:51:43;;;;;;;2.27;2.00;;;20.90;46.40;;;;;;5006864;28;20500;-59
2024/03/15 08:54:09;;;;;;;3.07;2.20;;;20.90;46.20;;;;;;5010797;28;20448;-60
2024/03/15 08:56:34;;;;;;;2.40;2.20;;;21.00;46.50;;;;;;5004833;28;20485;-60
2024/03/15 08:59:04;;;;;;;3.37;2.30;;;21.00;46.50;;;;;;5009567;28;20570;-60
2024/03/15 09:01:32;;;;;;;2.63;2.07;;;21.10;46.50;;;;;;5005765;28;20222;-59
2024/03/15 09:03:59;;;;;;;2.53;2.20;;;21.20;46.20;;;;;;5008305;28;20436;-60
2024/03/15 09:06:27;;;;;;;4.60;2.20;;;21.20;45.90;;;;;;5008365;28;20453;-59
2024/03/15 09:08:56;;;;;;;3.30;2.37;;;21.30;46.40;;;;;;5006860;28;20436;-61
2024/03/15 09:11:22;;;;;;;3.57;2.00;;;21.40;46.70;;;;;;5006630;28;20964;-60
2024/03/15 09:13:49;;;;;;;2.80;1.97;;;21.50;46.30;;;;;;5009096;28;20469;-61
2024/03/15 09:16:14;;;;;;;2.37;2.00;;;21.70;45.90;;;;;;5004088;28;20630;-61
2024/03/15 09:18:41;;;;;;;2.93;1.93;;;21.80;45.30;;;;;;5008113;28;20425;-61
2024/03/15 09:21:07;;;;;;;3.83;2.10;;;21.90;45.40;;;;;;5010384;28;20275;-59
2024/03/15 09:23:33;;;;;;;4.87;2.37;;;22.00;45.60;;;;;;5009649;28;20437;-59
2024/03/15 09:25:59;;;;;;;2.10;2.00;;;22.00;45.60;;;;;;5006248;28;20433;-60
2024/03/15 09:28:30;;;;;;;8.30;1.87;;;22.20;45.70;;;;;;5009062;28;20549;-58
2024/03/15 09:30:57;;;;;;;6.43;1.73;;;22.40;45.40;;;;;;5006925;28;20437;-61
2024/03/15 09:33:27;;;;;;;2.90;2.03;;;22.50;44.90;;;;;;5007422;28;20433;-61
2024/03/15 09:35:53;;;;;;;2.30;2.10;;;22.70;45.10;;;;;;5003357;28;20494;-60
2024/03/15 09:38:19;;;;;;;3.60;1.93;;;22.60;45.30;;;;;;5005313;28;20439;-61
2024/03/15 09:40:45;;;;;;;4.00;2.20;;;22.80;45.20;;;;;;5008812;28;20481;-61
2024/03/15 09:43:13;;;;;;;4.67;2.23;;;22.90;45.00;;;;;;5007571;28;20221;-61
2024/03/15 09:45:39;;;;;;;2.17;1.97;;;22.90;44.80;;;;;;5007101;28;20727;-60
2024/03/15 09:48:11;;;;;;;2.40;1.63;;;22.70;44.80;;;;;;5006031;28;21325;-60
2024/03/15 09:50:39;;;;;;;1.80;1.70;;;22.90;45.20;;;;;;5005978;28;20849;-61
2024/03/15 09:53:09;;;;;;;2.23;1.90;;;22.90;44.40;;;;;;5006341;28;20446;-61
2024/03/15 09:55:34;;;;;;;10.30;2.40;;;23.00;44.60;;;;;;5009995;28;20421;-61
2024/03/15 09:58:04;;;;;;;3.10;2.30;;;23.30;44.60;;;;;;5007421;28;20457;-60
2024/03/15 10:00:30;;;;;;;4.83;3.20;;;23.40;43.70;;;;;;5008918;28;20214;-60
2024/03/15 10:02:56;;;;;;;3.23;2.93;;;23.30;44.00;;;;;;5001586;28;20476;-60
2024/03/15 10:05:22;;;;;;;2.57;1.90;;;23.30;43.70;;;;;;5007929;28;20833;-60
2024/03/15 10:07:52;;;;;;;1.90;1.63;;;23.20;43.80;;;;;;5007405;28;20445;-59
2024/03/15 10:10:19;;;;;;;2.50;1.77;;;22.90;44.20;;;;;;5002021;28;20983;-61
2024/03/15 10:12:45;;;;;;;1.50;1.33;;;22.70;44.90;;;;;;5005276;28;20428;-61
2024/03/15 10:15:13;;;;;;;1.53;1.30;;;22.70;45.30;;;;;;5009288;28;20433;-61
2024/03/15 10:17:40;;;;;;;2.03;1.40;;;22.90;45.30;;;;;;5002681;28;20476;-61
2024/03/15 10:20:14;;;;;;;2.80;1.40;;;23.10;45.70;;;;;;5008033;28;20448;-61
2024/03/15 10:22:40;;;;;;;1.10;1.00;;;23.20;46.30;;;;;;5003901;28;20426;-60
2024/03/15 10:25:15;;;;;;;2.33;2.20;;;23.00;46.20;;;;;;5006547;28;20430;-60
2024/03/15 10:27:50;;;;;;;3.40;1.47;;;23.00;46.30;;;;;;5007594;28;20429;-60
2024/03/15 10:30:25;;;;;;;2.80;1.43;;;22.70;46.90;;;;;;5001723;28;20914;-61
2024/03/15 10:32:52;;;;;;;1.93;1.17;;;22.50;47.00;;;;;;5005255;28;20459;-61
2024/03/15 10:35:21;;;;;;;1.53;0.90;;;22.60;48.20;;;;;;5000787;28;20452;-59
2024/03/15 10:37:48;;;;;;;1.33;1.23;;;22.60;49.40;;;;;;5002886;28;20963;-61
2024/03/15 10:40:15;;;;;;;1.20;1.10;;;22.50;49.70;;;;;;5008031;28;20433;-59
2024/03/15 10:42:46;;;;;;;2.33;1.43;;;22.20;49.70;;;;;;5004091;28;20429;-61
2024/03/15 10:45:14;;;;;;;2.07;1.00;;;21.90;50.80;;;;;;5006542;28;20417;-60
2024/03/15 10:47:40;;;;;;;2.00;1.30;;;21.80;52.00;;;;;;5006768;28;21008;-60
2024/03/15 10:50:20;;;;;;;1.93;1.10;;;21.80;52.20;;;;;;5007792;28;20940;-60
2024/03/15 10:52:50;;;;;;;1.17;1.07;;;21.70;52.50;;;;;;5006442;28;20425;-59
2024/03/15 10:55:19;;;;;;;1.40;1.10;;;21.70;53.30;;;;;;5000056;28;20460;-61
2024/03/15 10:57:45;;;;;;;1.20;1.00;;;21.70;53.30;;;;;;5005065;28;20445;-59
2024/03/15 11:00:15;;;;;;;1.47;1.37;;;21.60;53.60;;;;;;5005504;28;20433;-60
2024/03/15 11:02:44;;;;;;;1.10;1.00;;;21.60;53.90;;;;;;5008016;28;20479;-60
2024/03/15 11:05:21;;;;;;;2.10;1.20;;;21.60;53.60;;;;;;5002561;28;20422;-61
2024/03/15 11:08:07;;;;;;;1.47;1.37;;;21.70;52.80;;;;;;5005905;28;20432;-59
2024/03/15 11:10:32;;;;;;;2.43;1.40;;;21.70;53.00;;;;;;5006891;28;20420;-59
2024/03/15 11:13:03;;;;;;;1.50;1.40;;;21.60;53.20;;;;;;5003511;28;20983;-59
2024/03/15 11:15:38;;;;;;;2.07;1.50;;;21.60;52.90;;;;;;5008189;28;20189;-60
2024/03/15 11:18:06;;;;;;;1.60;1.13;;;21.60;52.50;;;;;;5000987;28;20545;-58
2024/03/15 11:20:49;;;;;;;2.73;1.37;;;21.60;52.00;;;;;;5005721;28;20408;-60
2024/03/15 11:23:18;;;;;;;0.80;0.80;;;21.50;52.40;;;;;;5007744;28;20416;-60
2024/03/15 11:26:01;;;;;;;6.03;1.20;;;21.40;52.50;;;;;;5006134;28;20429;-60
2024/03/15 11:28:28;;;;;;;1.30;1.20;;;21.40;52.20;;;;;;5004301;28;20417;-60
2024/03/15 11:30:54;;;;;;;2.50;1.97;;;21.00;51.90;;;;;;5005368;28;20435;-58
2024/03/15 11:33:20;;;;;;;2.27;1.87;;;20.70;51.40;;;;;;5006350;28;20421;-60
2024/03/15 11:35:48;;;;;;;1.47;1.33;;;20.70;50.70;;;;;;5008438;28;20216;-59
2024/03/15 11:38:15;;;;;;;3.10;1.47;;;20.70;50.30;;;;;;5004759;28;20524;-59
2024/03/15 11:40:41;;;;;;;3.53;2.47;;;20.50;50.10;;;;;;5006330;28;21030;-61
2024/03/15 11:43:11;;;;;;;2.13;1.63;;;20.40;51.00;;;;;;5004029;28;20464;-60
2024/03/15 11:45:38;;;;;;;1.80;1.70;;;20.50;50.20;;;;;;5004218;28;20279;-60
2024/03/15 11:48:17;;;;;;;1.80;1.70;;;20.50;50.40;;;;;;5007213;28;20539;-59
2024/03/15 11:50:46;;;;;;;2.13;1.43;;;20.50;50.20;;;;;;5005615;28;21630;-60
2024/03/15 11:53:13;;;;;;;2.07;1.80;;;20.30;50.00;;;;;;5006534;28;20417;-59
2024/03/15 11:55:42;;;;;;;1.70;1.60;;;20.30;50.40;;;;;;5005658;28;20421;-60
2024/03/15 11:58:15;;;;;;;1.80;1.70;;;20.60;50.10;;;;;;5008606;28;20449;-60
2024/03/15 12:00:44;;;;;;;3.00;1.50;;;20.70;49.70;;;;;;5011706;28;20472;-60
2024/03/15 12:03:11;;;;;;;1.60;1.50;;;20.60;50.00;;;;;;5009606;28;20924;-60
2024/03/15 12:05:40;;;;;;;3.83;1.53;;;20.70;50.00;;;;;;5008723;28;20952;-61
2024/03/15 12:08:12;;;;;;;5.03;1.70;;;20.70;49.80;;;;;;5009242;28;20535;-60
2024/03/15 12:10:39;;;;;;;1.67;1.57;;;20.60;49.70;;;;;;5009157;28;20991;-59
2024/03/15 12:13:20;;;;;;;3.50;1.43;;;20.60;49.70;;;;;;5007320;28;20448;-60
2024/03/15 12:15:47;;;;;;;2.57;1.47;;;20.70;49.40;;;;;;5011150;28;20431;-61
2024/03/15 12:18:14;;;;;;;3.17;1.40;;;20.50;49.20;;;;;;5004878;28;20547;-60
2024/03/15 12:20:41;;;;;;;1.93;1.47;;;20.60;49.30;;;;;;5010224;28;20908;-60
2024/03/15 12:23:11;;;;;;;2.40;1.43;;;20.50;49.00;;;;;;5010597;28;21059;-60
2024/03/15 12:25:36;;;;;;;1.97;1.40;;;20.40;48.90;;;;;;5009069;28;20413;-59
2024/03/15 12:28:05;;;;;;;3.40;3.10;;;20.30;48.90;;;;;;5008167;28;20447;-60
2024/03/15 12:30:30;;;;;;;11.30;9.80;;;20.10;49.20;;;;;;5007648;28;20540;-59
2024/03/15 12:32:56;;;;;;;2.77;2.57;;;20.00;49.60;;;;;;5006094;28;20432;-60
2024/03/15 12:35:22;;;;;;;2.20;2.00;;;20.10;49.30;;;;;;5010772;28;20762;-60
2024/03/15 12:37:48;;;;;;;2.70;1.47;;;20.10;49.40;;;;;;5006457;28;20445;-60
2024/03/15 12:40:18;;;;;;;4.77;1.90;;;20.10;49.30;;;;;;5009829;28;20190;-59
2024/03/15 12:42:46;;;;;;;3.40;3.00;;;20.40;49.80;;;;;;5010381;28;20247;-59
2024/03/15 12:45:12;;;;;;;6.87;4.63;;;20.40;49.90;;;;;;5006975;28;20433;-60
2024/03/15 12:47:41;;;;;;;15.17;12.97;;;20.50;49.50;;;;;;5007928;28;21062;-59
2024/03/15 12:50:18;;;;;;;7.37;5.70;;;20.50;49.40;;;;;;5009003;28;20658;-61